createdAt,value
2018-09-24T00:02:24.390Z,100.00
2018-09-24T00:04:52.770Z,100.00
2018-09-24T00:07:23.501Z,100.00
2018-09-24T00:09:52.708Z,100.00
2018-09-24T00:12:23.892Z,100.00
2018-09-24T00:14:52.223Z,100.00
2018-09-24T00:17:20.595Z,100.00
2018-09-24T00:19:48.921Z,100.00
2018-09-24T00:22:17.272Z,100.00
2018-09-24T00:24:46.633Z,100.00
2018-09-24T00:27:15.014Z,100.00
2018-09-24T00:29:43.354Z,100.00
2018-09-24T00:32:12.729Z,100.00
2018-09-24T00:34:41.100Z,100.00
2018-09-24T00:37:10.461Z,100.00
2018-09-24T00:39:38.821Z,100.00
2018-09-24T00:42:07.166Z,100.00
2018-09-24T00:44:37.488Z,100.00
2018-09-24T00:47:06.783Z,100.00
2018-09-24T00:49:35.557Z,100.00
2018-09-24T00:52:05.880Z,100.00
2018-09-24T00:54:35.621Z,100.00
2018-09-24T00:57:05.616Z,100.00
2018-09-24T00:59:35.606Z,100.00
2018-09-24T01:02:05.100Z,100.00
2018-09-24T01:04:35.097Z,100.00
2018-09-24T01:07:05.266Z,100.00
2018-09-24T01:09:34.343Z,100.00
2018-09-24T01:12:03.642Z,100.00
2018-09-24T01:14:32.897Z,100.00
2018-09-24T01:17:02.238Z,100.00
2018-09-24T01:19:31.454Z,100.00
2018-09-24T01:21:59.776Z,100.00
2018-09-24T01:24:28.098Z,100.00
2018-09-24T01:26:56.448Z,100.00
2018-09-24T01:29:25.613Z,100.00
2018-09-24T01:31:54.535Z,100.00
2018-09-24T01:34:23.467Z,100.00
2018-09-24T01:36:51.916Z,100.00
2018-09-24T01:39:20.261Z,100.00
2018-09-24T01:41:48.705Z,100.00
2018-09-24T01:44:17.036Z,100.00
2018-09-24T01:46:45.469Z,100.00
2018-09-24T01:49:14.100Z,100.00
2018-09-24T01:51:42.421Z,100.00
2018-09-24T01:54:10.744Z,100.00
2018-09-24T01:56:39.221Z,100.00
2018-09-24T01:59:07.551Z,100.00
2018-09-24T02:01:37.570Z,100.00
2018-09-24T02:04:06.718Z,100.00
2018-09-24T02:06:36.070Z,100.00
2018-09-24T02:09:05.914Z,100.00
2018-09-24T02:11:34.813Z,100.00
2018-09-24T02:14:03.135Z,100.00
2018-09-24T02:16:31.470Z,100.00
2018-09-24T02:19:00.303Z,100.00
2018-09-24T02:21:28.681Z,100.00
2018-09-24T02:24:01.677Z,100.00
2018-09-24T02:26:29.998Z,100.00
2018-09-24T02:28:59.349Z,100.00
2018-09-24T02:31:28.718Z,100.00
2018-09-24T02:33:57.961Z,100.00
2018-09-24T02:36:27.185Z,100.00
2018-09-24T02:38:56.458Z,100.00
2018-09-24T02:41:25.810Z,100.00
2018-09-24T02:43:56.146Z,100.00
2018-09-24T02:46:26.481Z,100.00
2018-09-24T02:48:59.626Z,100.00
2018-09-24T02:51:28.005Z,100.00
2018-09-24T02:53:57.365Z,100.00
2018-09-24T02:56:26.581Z,100.00
2018-09-24T02:58:55.869Z,100.00
2018-09-24T03:01:25.942Z,100.00
2018-09-24T03:03:55.645Z,100.00
2018-09-24T03:06:25.032Z,100.00
2018-09-24T03:08:54.441Z,100.00
2018-09-24T03:11:22.813Z,100.00
2018-09-24T03:13:54.059Z,100.00
2018-09-24T03:16:23.305Z,100.00
2018-09-24T03:18:58.606Z,100.00
2018-09-24T03:21:28.102Z,100.00
2018-09-24T03:23:56.438Z,100.00
2018-09-24T03:26:26.630Z,100.00
2018-09-24T03:28:55.299Z,100.00
2018-09-24T03:31:25.500Z,100.00
2018-09-24T03:33:55.164Z,100.00
2018-09-24T03:36:25.525Z,100.00
2018-09-24T03:38:55.970Z,100.00
2018-09-24T03:41:26.273Z,100.00
2018-09-24T03:43:54.653Z,100.00
2018-09-24T03:46:23.694Z,100.00
2018-09-24T03:48:52.013Z,100.00
2018-09-24T03:51:21.393Z,100.00
2018-09-24T03:53:49.717Z,100.00
2018-09-24T03:56:19.038Z,100.00
2018-09-24T03:58:47.478Z,100.00
2018-09-24T04:01:16.700Z,100.00
2018-09-24T04:03:45.060Z,100.00
2018-09-24T04:06:19.645Z,100.00
2018-09-24T04:08:54.472Z,100.00
2018-09-24T04:11:29.180Z,100.00
2018-09-24T04:14:02.917Z,100.00
2018-09-24T04:16:37.695Z,100.00
2018-09-24T04:19:12.430Z,100.00
2018-09-24T04:21:46.069Z,100.00
2018-09-24T04:24:19.830Z,100.00
2018-09-24T04:26:54.723Z,100.00
2018-09-24T04:29:28.540Z,100.00
2018-09-24T04:32:02.194Z,100.00
2018-09-24T04:34:35.923Z,100.00
2018-09-24T04:37:11.578Z,100.00
2018-09-24T04:39:46.287Z,100.00
2018-09-24T04:42:20.077Z,100.00
2018-09-24T04:44:54.881Z,100.00
2018-09-24T04:47:29.586Z,100.00
2018-09-24T04:50:05.125Z,100.00
2018-09-24T04:52:39.839Z,100.00
2018-09-24T04:55:13.640Z,100.00
2018-09-24T04:57:48.353Z,100.00
2018-09-24T05:00:22.028Z,100.00
2018-09-24T05:02:56.621Z,100.00
2018-09-24T05:05:31.753Z,100.00
2018-09-24T05:08:06.295Z,100.00
2018-09-24T05:10:39.929Z,100.00
2018-09-24T05:13:13.897Z,100.00
2018-09-24T05:15:47.718Z,100.00
2018-09-24T05:18:21.301Z,100.00
2018-09-24T05:20:54.869Z,100.00
2018-09-24T05:23:28.613Z,100.00
2018-09-24T05:26:02.185Z,100.00
2018-09-24T05:28:35.929Z,100.00
2018-09-24T05:31:09.914Z,100.00
2018-09-24T05:33:43.611Z,100.00
2018-09-24T05:36:17.376Z,100.00
2018-09-24T05:38:51.062Z,100.00
2018-09-24T05:41:24.816Z,100.00
2018-09-24T05:43:58.393Z,100.00
2018-09-24T05:46:32.536Z,100.00
2018-09-24T05:49:06.234Z,100.00
2018-09-24T05:51:39.977Z,100.00
2018-09-24T05:54:13.787Z,100.00
2018-09-24T05:56:47.387Z,100.00
2018-09-24T05:59:21.126Z,100.00
2018-09-24T06:01:54.805Z,100.00
2018-09-24T06:04:28.501Z,100.00
2018-09-24T06:07:02.210Z,100.00
2018-09-24T06:09:36.997Z,100.00
2018-09-24T06:12:11.520Z,98.81
2018-09-24T06:14:45.034Z,100.00
2018-09-24T06:17:18.748Z,99.55
2018-09-24T06:19:52.445Z,99.11
2018-09-24T06:22:26.107Z,96.86
2018-09-24T06:24:59.897Z,97.48
2018-09-24T06:27:34.169Z,96.98
2018-09-24T06:30:07.889Z,96.19
2018-09-24T06:32:42.429Z,96.81
2018-09-24T06:35:16.045Z,95.83
2018-09-24T06:37:50.789Z,94.12
2018-09-24T06:40:25.502Z,95.27
2018-09-24T06:43:01.145Z,94.06
2018-09-24T06:45:35.184Z,94.47
2018-09-24T06:48:08.856Z,93.34
2018-09-24T06:50:42.645Z,92.46
2018-09-24T06:53:16.337Z,91.01
2018-09-24T06:55:49.905Z,93.66
2018-09-24T06:58:24.702Z,90.53
2018-09-24T07:00:58.300Z,93.08
2018-09-24T07:03:32.107Z,92.13
2018-09-24T07:06:06.863Z,91.46
2018-09-24T07:08:40.568Z,91.05
2018-09-24T07:11:15.360Z,89.73
2018-09-24T07:13:55.709Z,87.80
2018-09-24T07:16:31.445Z,88.99
2018-09-24T07:19:06.049Z,86.89
2018-09-24T07:21:39.777Z,87.51
2018-09-24T07:24:14.361Z,86.32
2018-09-24T07:26:47.913Z,86.37
2018-09-24T07:29:21.630Z,86.51
2018-09-24T07:31:56.369Z,84.39
2018-09-24T07:34:32.546Z,84.68
2018-09-24T07:37:06.256Z,84.82
2018-09-24T07:39:41.953Z,85.04
2018-09-24T07:42:15.417Z,85.26
2018-09-24T07:44:49.164Z,83.29
2018-09-24T07:47:25.450Z,82.46
2018-09-24T07:50:00.257Z,82.57
2018-09-24T07:52:34.858Z,81.05
2018-09-24T07:55:09.582Z,82.51
2018-09-24T07:57:43.369Z,80.79
2018-09-24T08:00:18.161Z,80.02
2018-09-24T08:02:53.709Z,78.92
2018-09-24T08:05:28.273Z,79.11
2018-09-24T08:08:03.007Z,80.50
2018-09-24T08:10:37.766Z,81.01
2018-09-24T08:13:12.389Z,80.30
2018-09-24T08:15:46.189Z,77.88
2018-09-24T08:18:21.041Z,76.67
2018-09-24T08:20:55.671Z,76.47
2018-09-24T08:23:31.399Z,77.52
2018-09-24T08:26:05.985Z,76.06
2018-09-24T08:28:41.675Z,78.19
2018-09-24T08:31:15.300Z,75.43
2018-09-24T08:33:49.032Z,75.45
2018-09-24T08:36:22.799Z,76.56
2018-09-24T08:38:56.409Z,76.82
2018-09-24T08:41:29.981Z,74.52
2018-09-24T08:44:05.165Z,74.26
2018-09-24T08:46:38.732Z,73.50
2018-09-24T08:49:13.413Z,73.69
2018-09-24T08:51:47.100Z,73.21
2018-09-24T08:54:21.942Z,72.44
2018-09-24T08:56:55.754Z,73.12
2018-09-24T08:59:31.469Z,72.29
2018-09-24T09:02:05.249Z,71.86
2018-09-24T09:04:39.937Z,72.54
2018-09-24T09:07:13.692Z,71.55
2018-09-24T09:09:48.617Z,72.64
2018-09-24T09:12:23.520Z,70.11
2018-09-24T09:14:58.359Z,68.47
2018-09-24T09:17:32.979Z,67.81
2018-09-24T09:20:07.725Z,68.17
2018-09-24T09:22:42.392Z,68.61
2018-09-24T09:25:17.128Z,67.65
2018-09-24T09:27:51.801Z,68.46
2018-09-24T09:30:26.495Z,67.78
2018-09-24T09:33:02.159Z,67.35
2018-09-24T09:35:36.902Z,67.33
2018-09-24T09:38:12.717Z,66.32
2018-09-24T09:40:47.573Z,67.08
2018-09-24T09:43:22.320Z,69.04
2018-09-24T09:45:57.073Z,66.30
2018-09-24T09:48:31.890Z,67.23
2018-09-24T09:51:06.461Z,68.28
2018-09-24T09:53:40.410Z,65.55
2018-09-24T09:56:14.187Z,65.37
2018-09-24T09:58:48.749Z,64.66
2018-09-24T10:01:23.821Z,65.87
2018-09-24T10:03:58.446Z,62.40
2018-09-24T10:06:32.136Z,63.96
2018-09-24T10:09:05.710Z,61.71
2018-09-24T10:11:40.291Z,62.20
2018-09-24T10:14:14.033Z,63.79
2018-09-24T10:16:47.689Z,62.24
2018-09-24T10:19:22.412Z,61.90
2018-09-24T10:21:57.009Z,60.96
2018-09-24T10:24:33.220Z,60.26
2018-09-24T10:27:07.851Z,60.73
2018-09-24T10:29:42.865Z,62.01
2018-09-24T10:32:17.499Z,61.00
2018-09-24T10:34:52.079Z,60.70
2018-09-24T10:37:25.793Z,61.33
2018-09-24T10:39:59.356Z,58.91
2018-09-24T10:42:32.949Z,58.25
2018-09-24T10:45:06.493Z,59.55
2018-09-24T10:47:40.182Z,59.81
2018-09-24T10:50:13.855Z,58.79
2018-09-24T10:52:47.624Z,59.62
2018-09-24T10:55:21.341Z,60.66
2018-09-24T10:57:55.109Z,57.00
2018-09-24T11:00:28.826Z,57.88
2018-09-24T11:03:02.440Z,57.31
2018-09-24T11:05:36.152Z,57.50
2018-09-24T11:08:09.893Z,57.17
2018-09-24T11:10:43.589Z,57.02
2018-09-24T11:13:17.287Z,56.16
2018-09-24T11:15:51.097Z,57.17
2018-09-24T11:18:24.747Z,56.86
2018-09-24T11:20:58.254Z,56.59
2018-09-24T11:23:33.066Z,56.49
2018-09-24T11:26:06.785Z,55.58
2018-09-24T11:28:42.540Z,55.10
2018-09-24T11:31:16.265Z,54.93
2018-09-24T11:33:50.792Z,54.16
2018-09-24T11:36:24.492Z,53.38
2018-09-24T11:38:59.209Z,53.67
2018-09-24T11:41:32.889Z,53.52
2018-09-24T11:44:07.563Z,52.48
2018-09-24T11:46:42.221Z,54.01
2018-09-24T11:49:16.997Z,54.47
2018-09-24T11:51:51.748Z,52.59
2018-09-24T11:54:26.456Z,53.55
2018-09-24T11:57:00.025Z,53.61
2018-09-24T11:59:34.729Z,52.65
2018-09-24T12:02:09.268Z,51.69
2018-09-24T12:04:43.996Z,50.92
2018-09-24T12:07:18.771Z,52.19
2018-09-24T12:09:53.899Z,57.40
2018-09-24T12:12:28.585Z,64.85
2018-09-24T12:15:03.268Z,74.17
2018-09-24T12:17:37.993Z,81.81
2018-09-24T12:20:12.585Z,88.37
2018-09-24T12:22:47.249Z,92.40
2018-09-24T12:25:20.869Z,94.27
2018-09-24T12:27:54.570Z,97.79
2018-09-24T12:30:29.226Z,94.38
2018-09-24T12:33:05.061Z,94.23
2018-09-24T12:35:39.706Z,97.85
2018-09-24T12:38:14.428Z,99.08
2018-09-24T12:40:49.201Z,100.00
2018-09-24T12:43:24.910Z,100.00
2018-09-24T12:45:59.505Z,97.38
2018-09-24T12:48:34.740Z,99.47
2018-09-24T12:51:08.504Z,99.84
2018-09-24T12:53:42.476Z,96.94
2018-09-24T12:56:17.149Z,94.94
2018-09-24T12:58:51.434Z,97.66
2018-09-24T13:01:26.039Z,98.15
2018-09-24T13:03:59.835Z,98.88
2018-09-24T13:06:35.643Z,100.00
2018-09-24T13:09:09.276Z,100.00
2018-09-24T13:11:44.090Z,100.00
2018-09-24T13:14:17.796Z,100.00
2018-09-24T13:16:52.424Z,100.00
2018-09-24T13:19:26.142Z,100.00
2018-09-24T13:22:00.834Z,100.00
2018-09-24T13:24:36.094Z,98.55
2018-09-24T13:27:12.021Z,98.12
2018-09-24T13:29:45.708Z,100.00
2018-09-24T13:32:20.442Z,100.00
2018-09-24T13:34:55.166Z,100.00
2018-09-24T13:37:29.742Z,100.00
2018-09-24T13:40:05.369Z,100.00
2018-09-24T13:42:39.157Z,96.61
2018-09-24T13:45:13.871Z,93.75
2018-09-24T13:47:48.418Z,91.46
2018-09-24T13:50:23.932Z,94.12
2018-09-24T13:52:58.501Z,87.80
2018-09-24T13:55:40.310Z,86.04
2018-09-24T13:58:14.393Z,86.10
2018-09-24T14:00:49.176Z,84.40
2018-09-24T14:03:25.052Z,82.01
2018-09-24T14:05:59.644Z,84.62
2018-09-24T14:08:34.991Z,80.90
2018-09-24T14:11:09.612Z,83.95
2018-09-24T14:13:43.232Z,92.89
2018-09-24T14:16:17.834Z,90.53
2018-09-24T14:18:51.619Z,86.29
2018-09-24T14:21:25.571Z,89.44
2018-09-24T14:24:00.248Z,87.64
2018-09-24T14:26:33.887Z,89.78
2018-09-24T14:29:07.573Z,100.00
2018-09-24T14:31:41.781Z,100.00
2018-09-24T14:34:15.369Z,100.00
2018-09-24T14:36:48.952Z,100.00
2018-09-24T14:39:22.632Z,100.00
2018-09-24T14:41:57.154Z,100.00
2018-09-24T14:44:31.518Z,100.00
2018-09-24T14:47:05.252Z,100.00
2018-09-24T14:49:38.907Z,100.00
2018-09-24T14:52:12.885Z,100.00
2018-09-24T14:54:46.585Z,100.00
2018-09-24T14:57:20.152Z,100.00
2018-09-24T14:59:54.553Z,91.42
2018-09-24T15:02:28.370Z,90.54
2018-09-24T15:05:02.116Z,87.99
2018-09-24T15:07:36.876Z,85.94
2018-09-24T15:10:10.521Z,79.84
2018-09-24T15:12:44.286Z,83.46
2018-09-24T15:15:17.877Z,74.13
2018-09-24T15:17:51.655Z,73.49
2018-09-24T15:20:25.293Z,68.75
2018-09-24T15:22:58.929Z,71.12
2018-09-24T15:25:35.301Z,67.07
2018-09-24T15:28:08.964Z,67.40
2018-09-24T15:30:43.137Z,68.80
2018-09-24T15:33:16.699Z,67.53
2018-09-24T15:35:50.442Z,70.44
2018-09-24T15:38:25.251Z,72.27
2018-09-24T15:40:59.036Z,75.77
2018-09-24T15:43:32.775Z,78.36
2018-09-24T15:46:06.445Z,79.59
2018-09-24T15:48:40.077Z,83.71
2018-09-24T15:51:13.696Z,85.52
2018-09-24T15:53:47.552Z,86.37
2018-09-24T15:56:21.257Z,85.34
2018-09-24T15:58:54.895Z,85.22
2018-09-24T16:01:28.710Z,89.64
2018-09-24T16:04:02.313Z,89.93
2018-09-24T16:06:35.901Z,92.46
2018-09-24T16:09:10.477Z,87.39
2018-09-24T16:11:44.240Z,86.34
2018-09-24T16:14:17.938Z,87.59
2018-09-24T16:16:52.716Z,86.52
2018-09-24T16:19:27.486Z,88.50
2018-09-24T16:22:02.262Z,89.66
2018-09-24T16:24:36.020Z,87.98
2018-09-24T16:27:11.061Z,97.81
2018-09-24T16:29:45.806Z,99.49
2018-09-24T16:32:20.470Z,99.42
2018-09-24T16:34:55.098Z,95.25
2018-09-24T16:37:29.931Z,94.74
2018-09-24T16:40:05.301Z,94.00
2018-09-24T16:42:40.001Z,89.22
2018-09-24T16:45:14.717Z,92.12
2018-09-24T16:47:49.302Z,90.39
2018-09-24T16:50:23.087Z,89.17
2018-09-24T16:52:57.808Z,93.80
2018-09-24T16:55:32.297Z,93.61
2018-09-24T16:58:07.057Z,95.41
2018-09-24T17:00:41.371Z,91.26
2018-09-24T17:03:15.002Z,91.73
2018-09-24T17:05:48.750Z,84.65
2018-09-24T17:08:22.486Z,88.67
2018-09-24T17:10:56.234Z,86.34
2018-09-24T17:13:30.753Z,84.43
2018-09-24T17:16:05.033Z,88.48
2018-09-24T17:18:38.759Z,85.72
2018-09-24T17:21:12.501Z,89.98
2018-09-24T17:23:47.248Z,75.43
2018-09-24T17:26:20.990Z,74.99
2018-09-24T17:28:54.702Z,74.66
2018-09-24T17:31:28.413Z,73.39
2018-09-24T17:34:03.225Z,72.28
2018-09-24T17:36:37.000Z,72.92
2018-09-24T17:39:13.589Z,74.77
2018-09-24T17:41:47.429Z,74.73
2018-09-24T17:44:21.353Z,75.69
2018-09-24T17:46:56.208Z,73.90
2018-09-24T17:49:30.087Z,73.80
2018-09-24T17:52:03.813Z,75.34
2018-09-24T17:54:37.622Z,73.58
2018-09-24T17:57:12.266Z,73.23
2018-09-24T17:59:46.983Z,75.11
2018-09-24T18:02:20.634Z,75.62
2018-09-24T18:04:54.710Z,74.31
2018-09-24T18:07:28.533Z,74.35
2018-09-24T18:10:02.300Z,74.01
2018-09-24T18:12:37.066Z,73.50
2018-09-24T18:15:11.718Z,72.76
2018-09-24T18:17:45.407Z,76.64
2018-09-24T18:20:19.128Z,75.28
2018-09-24T18:22:54.506Z,75.30
2018-09-24T18:25:29.251Z,79.11
2018-09-24T18:28:05.052Z,74.65
2018-09-24T18:30:39.621Z,74.81
2018-09-24T18:33:14.377Z,75.31
2018-09-24T18:35:48.050Z,75.26
2018-09-24T18:38:22.633Z,73.60
2018-09-24T18:40:56.296Z,74.20
2018-09-24T18:43:31.772Z,74.11
2018-09-24T18:46:05.948Z,73.74
2018-09-24T18:48:39.840Z,75.07
2018-09-24T18:51:14.653Z,74.94
2018-09-24T18:53:49.445Z,75.21
2018-09-24T18:56:23.248Z,75.22
2018-09-24T18:58:57.865Z,75.03
2018-09-24T19:01:32.401Z,76.00
2018-09-24T19:04:07.226Z,75.04
2018-09-24T19:06:43.208Z,74.61
2018-09-24T19:09:17.979Z,74.51
2018-09-24T19:11:52.758Z,74.12
2018-09-24T19:14:27.553Z,73.85
2018-09-24T19:17:02.328Z,74.43
2018-09-24T19:19:36.749Z,74.62
2018-09-24T19:22:12.062Z,74.30
2018-09-24T19:24:46.630Z,74.78
2018-09-24T19:27:20.186Z,76.14
2018-09-24T19:29:54.532Z,74.81
2018-09-24T19:32:29.330Z,76.04
2018-09-24T19:35:02.922Z,76.60
2018-09-24T19:37:37.567Z,77.20
2018-09-24T19:40:12.514Z,77.36
2018-09-24T19:42:46.215Z,77.51
2018-09-24T19:45:20.837Z,78.05
2018-09-24T19:47:54.617Z,77.69
2018-09-24T19:50:28.272Z,76.79
2018-09-24T19:53:02.789Z,77.25
2018-09-24T19:55:36.353Z,78.42
2018-09-24T19:58:10.098Z,81.14
2018-09-24T20:00:43.792Z,80.32
2018-09-24T20:03:17.557Z,85.69
2018-09-24T20:05:51.175Z,85.29
2018-09-24T20:08:24.968Z,79.87
2018-09-24T20:10:59.717Z,81.46
2018-09-24T20:13:34.176Z,80.00
2018-09-24T20:16:07.853Z,83.48
2018-09-24T20:18:42.533Z,80.56
2018-09-24T20:21:16.128Z,81.14
2018-09-24T20:23:50.070Z,82.32
2018-09-24T20:26:24.175Z,85.58
2018-09-24T20:28:58.752Z,89.50
2018-09-24T20:31:32.448Z,91.00
2018-09-24T20:34:06.064Z,92.48
2018-09-24T20:36:39.638Z,90.67
2018-09-24T20:39:14.066Z,91.72
2018-09-24T20:41:48.974Z,86.73
2018-09-24T20:44:24.215Z,86.98
2018-09-24T20:46:58.258Z,86.11
2018-09-24T20:49:32.639Z,84.95
2018-09-24T20:52:06.389Z,85.37
2018-09-24T20:54:39.971Z,88.52
2018-09-24T20:57:13.654Z,84.90
2018-09-24T20:59:48.265Z,85.96
2018-09-24T21:02:22.125Z,87.11
2018-09-24T21:04:55.923Z,84.19
2018-09-24T21:07:31.517Z,87.37
2018-09-24T21:10:06.213Z,87.35
2018-09-24T21:12:39.785Z,86.38
2018-09-24T21:15:13.519Z,87.37
2018-09-24T21:17:48.253Z,84.18
2018-09-24T21:20:22.004Z,84.76
2018-09-24T21:22:56.773Z,84.42
2018-09-24T21:25:32.514Z,83.89
2018-09-24T21:28:06.233Z,81.74
2018-09-24T21:30:41.700Z,83.94
2018-09-24T21:33:16.360Z,84.15
2018-09-24T21:35:50.233Z,85.18
2018-09-24T21:38:23.957Z,83.33
2018-09-24T21:40:57.689Z,83.88
2018-09-24T21:43:32.456Z,88.31
2018-09-24T21:46:06.291Z,84.48
2018-09-24T21:48:41.759Z,85.07
2018-09-24T21:51:16.537Z,88.86
2018-09-24T21:53:51.202Z,87.48
2018-09-24T21:56:25.946Z,84.67
2018-09-24T21:59:00.637Z,84.34
2018-09-24T22:01:35.225Z,86.21
2018-09-24T22:04:09.000Z,85.96
2018-09-24T22:06:43.785Z,86.52
2018-09-24T22:09:18.512Z,85.83
2018-09-24T22:11:52.262Z,88.66
2018-09-24T22:14:26.837Z,87.07
2018-09-24T22:17:02.616Z,86.83
2018-09-24T22:19:36.334Z,84.64
2018-09-24T22:22:09.920Z,84.67
2018-09-24T22:24:43.538Z,84.98
2018-09-24T22:27:17.249Z,88.31
2018-09-24T22:29:51.089Z,87.44
2018-09-24T22:32:24.796Z,89.46
2018-09-24T22:34:59.524Z,85.74
2018-09-24T22:37:33.161Z,86.08
2018-09-24T22:40:06.765Z,85.88
2018-09-24T22:42:42.032Z,84.78
2018-09-24T22:45:15.789Z,86.66
2018-09-24T22:47:50.528Z,87.32
2018-09-24T22:50:25.261Z,87.39
2018-09-24T22:52:59.833Z,89.05
2018-09-24T22:55:40.325Z,87.65
2018-09-24T22:58:15.193Z,89.55
2018-09-24T23:00:49.066Z,87.43
2018-09-24T23:03:22.865Z,87.48
2018-09-24T23:05:56.524Z,88.08
2018-09-24T23:08:30.241Z,88.11
2018-09-24T23:11:05.045Z,89.55
2018-09-24T23:13:39.629Z,89.42
2018-09-24T23:16:14.328Z,88.43
2018-09-24T23:18:49.017Z,89.94
2018-09-24T23:21:22.765Z,90.48
2018-09-24T23:23:56.481Z,89.21
2018-09-24T23:26:30.802Z,89.64
2018-09-24T23:29:05.633Z,90.18
2018-09-24T23:31:40.419Z,90.91
2018-09-24T23:34:15.229Z,90.75
2018-09-24T23:36:50.072Z,91.47
2018-09-24T23:39:24.789Z,90.22
2018-09-24T23:41:59.609Z,91.92
2018-09-24T23:44:34.842Z,90.79
2018-09-24T23:47:09.426Z,91.20
2018-09-24T23:49:42.997Z,91.18
2018-09-24T23:52:17.833Z,92.78
2018-09-24T23:54:52.577Z,93.21
2018-09-24T23:57:26.341Z,91.93
